sensor_id;sensor_type;location;lat;lon;timestamp;P1;durP1;ratioP1;P2;durP2;ratioP2
6842;SDS011;3460;52.028;8.916;2023-11-19T03:26:52;3.57;;;3.03;;
6842;SDS011;3460;52.028;8.916;2023-11-19T03:29:19;5.97;;;3.60;;
6842;SDS011;3460;52.028;8.916;2023-11-19T03:31:46;8.37;;;4.23;;
6842;SDS011;3460;52.028;8.916;2023-11-19T03:34:13;4.97;;;4.03;;
6842;SDS011;3460;52.028;8.916;2023-11-19T03:36:40;6.10;;;4.20;;
6842;SDS011;3460;52.028;8.916;2023-11-19T03:39:07;5.90;;;4.17;;
6842;SDS011;3460;52.028;8.916;2023-11-19T03:41:34;6.47;;;4.40;;
6842;SDS011;3460;52.028;8.916;2023-11-19T03:44:02;5.83;;;4.17;;
6842;SDS011;3460;52.028;8.916;2023-11-19T03:46:29;6.57;;;4.67;;
6842;SDS011;3460;52.028;8.916;2023-11-19T03:48:56;7.40;;;4.30;;
6842;SDS011;3460;52.028;8.916;2023-11-19T03:51:22;4.63;;;4.10;;
6842;SDS011;3460;52.028;8.916;2023-11-19T03:53:49;5.07;;;4.27;;
6842;SDS011;3460;52.028;8.916;2023-11-19T03:56:16;8.40;;;4.90;;
6842;SDS011;3460;52.028;8.916;2023-11-19T03:58:43;5.17;;;4.33;;
6842;SDS011;3460;52.028;8.916;2023-11-19T04:01:12;5.63;;;4.77;;
6842;SDS011;3460;52.028;8.916;2023-11-19T04:03:39;8.53;;;4.40;;
6842;SDS011;3460;52.028;8.916;2023-11-19T04:06:06;6.67;;;3.90;;
6842;SDS011;3460;52.028;8.916;2023-11-19T04:08:33;5.87;;;4.27;;
6842;SDS011;3460;52.028;8.916;2023-11-19T04:11:00;8.47;;;4.07;;
6842;SDS011;3460;52.028;8.916;2023-11-19T04:13:27;8.50;;;4.30;;
6842;SDS011;3460;52.028;8.916;2023-11-19T04:15:54;5.70;;;4.00;;
6842;SDS011;3460;52.028;8.916;2023-11-19T04:18:22;5.53;;;3.80;;
6842;SDS011;3460;52.028;8.916;2023-11-19T04:20:49;5.63;;;3.97;;
6842;SDS011;3460;52.028;8.916;2023-11-19T04:23:16;8.97;;;3.80;;
6842;SDS011;3460;52.028;8.916;2023-11-19T04:25:43;5.77;;;3.70;;
6842;SDS011;3460;52.028;8.916;2023-11-19T04:28:09;5.43;;;3.63;;
6842;SDS011;3460;52.028;8.916;2023-11-19T04:30:36;9.17;;;3.20;;
6842;SDS011;3460;52.028;8.916;2023-11-19T04:33:03;6.37;;;3.50;;
6842;SDS011;3460;52.028;8.916;2023-11-19T04:35:32;7.23;;;3.00;;
6842;SDS011;3460;52.028;8.916;2023-11-19T04:37:59;5.90;;;3.57;;
6842;SDS011;3460;52.028;8.916;2023-11-19T04:40:25;7.23;;;4.00;;
6842;SDS011;3460;52.028;8.916;2023-11-19T04:42:52;7.20;;;3.33;;
6842;SDS011;3460;52.028;8.916;2023-11-19T04:45:19;9.23;;;3.70;;
6842;SDS011;3460;52.028;8.916;2023-11-19T04:47:46;5.93;;;3.30;;
6842;SDS011;3460;52.028;8.916;2023-11-19T04:50:12;6.10;;;3.23;;
6842;SDS011;3460;52.028;8.916;2023-11-19T04:52:41;9.90;;;3.87;;
6842;SDS011;3460;52.028;8.916;2023-11-19T04:55:10;6.70;;;3.60;;
6842;SDS011;3460;52.028;8.916;2023-11-19T04:57:37;6.27;;;3.90;;
6842;SDS011;3460;52.028;8.916;2023-11-19T05:00:04;8.87;;;3.40;;
6842;SDS011;3460;52.028;8.916;2023-11-19T05:02:32;10.27;;;4.00;;
6842;SDS011;3460;52.028;8.916;2023-11-19T05:04:59;8.33;;;3.90;;
6842;SDS011;3460;52.028;8.916;2023-11-19T05:07:26;9.17;;;3.80;;
6842;SDS011;3460;52.028;8.916;2023-11-19T05:09:54;8.10;;;3.47;;
6842;SDS011;3460;52.028;8.916;2023-11-19T05:12:21;7.47;;;3.40;;
6842;SDS011;3460;52.028;8.916;2023-11-19T05:14:49;8.90;;;3.70;;
6842;SDS011;3460;52.028;8.916;2023-11-19T05:17:16;13.37;;;3.90;;
6842;SDS011;3460;52.028;8.916;2023-11-19T05:19:43;13.50;;;3.23;;
6842;SDS011;3460;52.028;8.916;2023-11-19T05:22:10;8.07;;;3.07;;
6842;SDS011;3460;52.028;8.916;2023-11-19T05:24:37;9.77;;;3.20;;
6842;SDS011;3460;52.028;8.916;2023-11-19T05:27:07;11.00;;;3.03;;
6842;SDS011;3460;52.028;8.916;2023-11-19T05:29:34;12.07;;;3.73;;
6842;SDS011;3460;52.028;8.916;2023-11-19T05:32:00;11.47;;;3.37;;
6842;SDS011;3460;52.028;8.916;2023-11-19T05:34:27;8.93;;;3.03;;
6842;SDS011;3460;52.028;8.916;2023-11-19T05:36:54;10.73;;;3.10;;
6842;SDS011;3460;52.028;8.916;2023-11-19T05:39:22;12.33;;;3.10;;
6842;SDS011;3460;52.028;8.916;2023-11-19T05:41:49;14.43;;;3.87;;
6842;SDS011;3460;52.028;8.916;2023-11-19T05:44:18;7.70;;;2.63;;
6842;SDS011;3460;52.028;8.916;2023-11-19T05:46:44;10.93;;;3.10;;
6842;SDS011;3460;52.028;8.916;2023-11-19T05:49:11;10.13;;;3.10;;
6842;SDS011;3460;52.028;8.916;2023-11-19T05:51:38;9.87;;;3.13;;
6842;SDS011;3460;52.028;8.916;2023-11-19T05:54:06;17.17;;;3.40;;
6842;SDS011;3460;52.028;8.916;2023-11-19T05:56:33;13.70;;;3.40;;
6842;SDS011;3460;52.028;8.916;2023-11-19T05:59:00;10.67;;;3.00;;
6842;SDS011;3460;52.028;8.916;2023-11-19T06:01:33;10.70;;;3.00;;
6842;SDS011;3460;52.028;8.916;2023-11-19T06:04:00;13.63;;;3.77;;
6842;SDS011;3460;52.028;8.916;2023-11-19T06:06:27;14.33;;;3.07;;
6842;SDS011;3460;52.028;8.916;2023-11-19T06:08:54;12.37;;;3.13;;
6842;SDS011;3460;52.028;8.916;2023-11-19T06:11:21;10.93;;;3.07;;
6842;SDS011;3460;52.028;8.916;2023-11-19T06:13:48;13.50;;;3.40;;
6842;SDS011;3460;52.028;8.916;2023-11-19T06:16:15;11.90;;;3.90;;
6842;SDS011;3460;52.028;8.916;2023-11-19T06:18:43;11.27;;;3.47;;
6842;SDS011;3460;52.028;8.916;2023-11-19T06:21:10;13.47;;;3.40;;
6842;SDS011;3460;52.028;8.916;2023-11-19T06:23:37;15.30;;;3.53;;
6842;SDS011;3460;52.028;8.916;2023-11-19T06:26:04;12.10;;;3.60;;
6842;SDS011;3460;52.028;8.916;2023-11-19T06:28:31;9.73;;;3.50;;
6842;SDS011;3460;52.028;8.916;2023-11-19T06:30:58;15.83;;;4.17;;
6842;SDS011;3460;52.028;8.916;2023-11-19T06:33:25;16.30;;;4.00;;
6842;SDS011;3460;52.028;8.916;2023-11-19T06:35:53;16.47;;;3.43;;
6842;SDS011;3460;52.028;8.916;2023-11-19T06:38:20;16.77;;;4.13;;
6842;SDS011;3460;52.028;8.916;2023-11-19T06:40:47;10.37;;;3.27;;
6842;SDS011;3460;52.028;8.916;2023-11-19T06:43:14;14.40;;;3.67;;
6842;SDS011;3460;52.028;8.916;2023-11-19T06:45:41;14.47;;;3.70;;
6842;SDS011;3460;52.028;8.916;2023-11-19T06:48:07;14.97;;;3.83;;
6842;SDS011;3460;52.028;8.916;2023-11-19T06:50:34;12.80;;;4.00;;
6842;SDS011;3460;52.028;8.916;2023-11-19T06:53:02;14.50;;;4.83;;
6842;SDS011;3460;52.028;8.916;2023-11-19T06:55:31;15.33;;;3.50;;
6842;SDS011;3460;52.028;8.916;2023-11-19T06:57:59;13.37;;;3.63;;
6842;SDS011;3460;52.028;8.916;2023-11-19T07:00:27;14.67;;;3.40;;
6842;SDS011;3460;52.028;8.916;2023-11-19T07:02:54;16.90;;;3.60;;
6842;SDS011;3460;52.028;8.916;2023-11-19T07:05:21;21.70;;;3.80;;
6842;SDS011;3460;52.028;8.916;2023-11-19T07:07:49;16.07;;;3.90;;
6842;SDS011;3460;52.028;8.916;2023-11-19T07:10:17;17.77;;;4.07;;
6842;SDS011;3460;52.028;8.916;2023-11-19T07:12:44;20.60;;;5.10;;
6842;SDS011;3460;52.028;8.916;2023-11-19T07:15:11;18.53;;;3.97;;
6842;SDS011;3460;52.028;8.916;2023-11-19T07:17:38;19.17;;;4.33;;
6842;SDS011;3460;52.028;8.916;2023-11-19T07:20:06;21.83;;;4.50;;
6842;SDS011;3460;52.028;8.916;2023-11-19T07:22:33;19.97;;;4.53;;
6842;SDS011;3460;52.028;8.916;2023-11-19T07:25:00;18.37;;;3.73;;
6842;SDS011;3460;52.028;8.916;2023-11-19T07:27:28;20.03;;;4.60;;
6842;SDS011;3460;52.028;8.916;2023-11-19T07:29:55;15.80;;;3.80;;
6842;SDS011;3460;52.028;8.916;2023-11-19T07:32:22;20.63;;;4.67;;
6842;SDS011;3460;52.028;8.916;2023-11-19T07:34:49;19.43;;;4.40;;
6842;SDS011;3460;52.028;8.916;2023-11-19T07:37:16;21.13;;;5.00;;
6842;SDS011;3460;52.028;8.916;2023-11-19T07:39:43;20.70;;;4.57;;
6842;SDS011;3460;52.028;8.916;2023-11-19T07:42:09;24.70;;;4.77;;
6842;SDS011;3460;52.028;8.916;2023-11-19T07:44:38;20.77;;;4.40;;
6842;SDS011;3460;52.028;8.916;2023-11-19T07:47:04;18.87;;;4.00;;
6842;SDS011;3460;52.028;8.916;2023-11-19T07:49:31;20.83;;;4.30;;
6842;SDS011;3460;52.028;8.916;2023-11-19T07:51:58;22.80;;;4.27;;
6842;SDS011;3460;52.028;8.916;2023-11-19T07:54:26;24.07;;;4.67;;
6842;SDS011;3460;52.028;8.916;2023-11-19T07:56:54;15.03;;;4.37;;
6842;SDS011;3460;52.028;8.916;2023-11-19T07:59:21;19.50;;;4.93;;
6842;SDS011;3460;52.028;8.916;2023-11-19T08:01:49;24.83;;;4.40;;
6842;SDS011;3460;52.028;8.916;2023-11-19T08:04:16;21.03;;;4.50;;
6842;SDS011;3460;52.028;8.916;2023-11-19T08:06:43;19.03;;;4.43;;
6842;SDS011;3460;52.028;8.916;2023-11-19T08:09:10;23.17;;;4.43;;
6842;SDS011;3460;52.028;8.916;2023-11-19T08:11:38;20.53;;;4.50;;
6842;SDS011;3460;52.028;8.916;2023-11-19T08:14:06;18.67;;;4.03;;
6842;SDS011;3460;52.028;8.916;2023-11-19T08:16:33;26.23;;;4.00;;
6842;SDS011;3460;52.028;8.916;2023-11-19T08:19:02;27.87;;;4.67;;
6842;SDS011;3460;52.028;8.916;2023-11-19T08:21:29;21.33;;;4.33;;
6842;SDS011;3460;52.028;8.916;2023-11-19T08:23:56;21.30;;;4.20;;
6842;SDS011;3460;52.028;8.916;2023-11-19T08:26:23;26.37;;;5.10;;
6842;SDS011;3460;52.028;8.916;2023-11-19T08:28:50;28.63;;;5.17;;
6842;SDS011;3460;52.028;8.916;2023-11-19T08:31:17;18.53;;;4.30;;
6842;SDS011;3460;52.028;8.916;2023-11-19T08:33:44;20.10;;;4.90;;
6842;SDS011;3460;52.028;8.916;2023-11-19T08:36:16;24.77;;;4.10;;
6842;SDS011;3460;52.028;8.916;2023-11-19T08:38:43;17.93;;;4.00;;
6842;SDS011;3460;52.028;8.916;2023-11-19T08:41:10;22.47;;;4.63;;
6842;SDS011;3460;52.028;8.916;2023-11-19T08:43:36;21.43;;;4.30;;
6842;SDS011;3460;52.028;8.916;2023-11-19T08:46:04;21.53;;;4.73;;
6842;SDS011;3460;52.028;8.916;2023-11-19T08:48:35;19.17;;;4.03;;
6842;SDS011;3460;52.028;8.916;2023-11-19T08:51:02;25.47;;;5.10;;
6842;SDS011;3460;52.028;8.916;2023-11-19T08:53:31;19.97;;;4.43;;
6842;SDS011;3460;52.028;8.916;2023-11-19T08:55:58;22.27;;;4.37;;
6842;SDS011;3460;52.028;8.916;2023-11-19T08:58:25;26.83;;;4.63;;
6842;SDS011;3460;52.028;8.916;2023-11-19T09:00:52;22.90;;;4.60;;
6842;SDS011;3460;52.028;8.916;2023-11-19T09:03:19;16.30;;;4.00;;
6842;SDS011;3460;52.028;8.916;2023-11-19T09:05:46;25.17;;;4.77;;
6842;SDS011;3460;52.028;8.916;2023-11-19T09:08:13;25.37;;;4.63;;
6842;SDS011;3460;52.028;8.916;2023-11-19T09:10:41;19.57;;;4.27;;
6842;SDS011;3460;52.028;8.916;2023-11-19T09:13:08;24.20;;;4.63;;
6842;SDS011;3460;52.028;8.916;2023-11-19T09:15:35;30.00;;;4.53;;
6842;SDS011;3460;52.028;8.916;2023-11-19T09:18:01;24.67;;;5.20;;
6842;SDS011;3460;52.028;8.916;2023-11-19T09:20:29;20.77;;;4.10;;
6842;SDS011;3460;52.028;8.916;2023-11-19T09:23:02;24.47;;;4.47;;
6842;SDS011;3460;52.028;8.916;2023-11-19T09:25:30;20.97;;;4.47;;
6842;SDS011;3460;52.028;8.916;2023-11-19T09:27:58;23.73;;;4.10;;
6842;SDS011;3460;52.028;8.916;2023-11-19T09:30:25;24.67;;;5.17;;
6842;SDS011;3460;52.028;8.916;2023-11-19T09:32:52;19.33;;;4.90;;
6842;SDS011;3460;52.028;8.916;2023-11-19T09:35:19;25.97;;;5.03;;
6842;SDS011;3460;52.028;8.916;2023-11-19T09:37:45;20.57;;;4.70;;
6842;SDS011;3460;52.028;8.916;2023-11-19T09:40:12;15.27;;;3.90;;
6842;SDS011;3460;52.028;8.916;2023-11-19T09:42:43;21.83;;;4.80;;
6842;SDS011;3460;52.028;8.916;2023-11-19T09:45:13;25.53;;;5.07;;
6842;SDS011;3460;52.028;8.916;2023-11-19T09:47:43;23.63;;;4.77;;
6842;SDS011;3460;52.028;8.916;2023-11-19T09:50:12;26.03;;;4.87;;
6842;SDS011;3460;52.028;8.916;2023-11-19T09:52:42;20.07;;;4.20;;
6842;SDS011;3460;52.028;8.916;2023-11-19T09:55:09;18.63;;;4.83;;
6842;SDS011;3460;52.028;8.916;2023-11-19T09:57:36;19.60;;;4.17;;
6842;SDS011;3460;52.028;8.916;2023-11-19T10:00:04;26.00;;;4.80;;
6842;SDS011;3460;52.028;8.916;2023-11-19T10:02:34;19.10;;;4.20;;
6842;SDS011;3460;52.028;8.916;2023-11-19T10:05:02;17.77;;;4.30;;
6842;SDS011;3460;52.028;8.916;2023-11-19T10:07:31;30.93;;;6.47;;
6842;SDS011;3460;52.028;8.916;2023-11-19T10:09:59;21.10;;;5.57;;
6842;SDS011;3460;52.028;8.916;2023-11-19T10:12:26;36.37;;;6.97;;
6842;SDS011;3460;52.028;8.916;2023-11-19T10:14:53;16.37;;;3.90;;
6842;SDS011;3460;52.028;8.916;2023-11-19T10:17:26;21.57;;;4.67;;
6842;SDS011;3460;52.028;8.916;2023-11-19T10:19:55;16.17;;;4.23;;
6842;SDS011;3460;52.028;8.916;2023-11-19T10:22:22;23.87;;;5.00;;
6842;SDS011;3460;52.028;8.916;2023-11-19T10:24:50;22.50;;;4.23;;
6842;SDS011;3460;52.028;8.916;2023-11-19T10:27:16;23.23;;;4.63;;
6842;SDS011;3460;52.028;8.916;2023-11-19T10:29:44;20.33;;;4.20;;
6842;SDS011;3460;52.028;8.916;2023-11-19T10:32:12;15.77;;;3.80;;
6842;SDS011;3460;52.028;8.916;2023-11-19T10:34:39;19.20;;;4.47;;
6842;SDS011;3460;52.028;8.916;2023-11-19T10:37:08;16.03;;;4.37;;
6842;SDS011;3460;52.028;8.916;2023-11-19T10:39:51;21.90;;;4.80;;
6842;SDS011;3460;52.028;8.916;2023-11-19T10:42:19;26.83;;;5.13;;
6842;SDS011;3460;52.028;8.916;2023-11-19T10:44:46;20.33;;;4.27;;
6842;SDS011;3460;52.028;8.916;2023-11-19T10:47:14;27.57;;;5.03;;
6842;SDS011;3460;52.028;8.916;2023-11-19T10:49:42;26.33;;;4.53;;
6842;SDS011;3460;52.028;8.916;2023-11-19T10:52:12;21.20;;;5.00;;
6842;SDS011;3460;52.028;8.916;2023-11-19T10:54:43;22.43;;;4.33;;
6842;SDS011;3460;52.028;8.916;2023-11-19T10:57:16;22.73;;;4.67;;
6842;SDS011;3460;52.028;8.916;2023-11-19T10:59:47;20.20;;;3.97;;
6842;SDS011;3460;52.028;8.916;2023-11-19T11:02:16;30.87;;;5.33;;
6842;SDS011;3460;52.028;8.916;2023-11-19T11:04:47;24.30;;;4.73;;
6842;SDS011;3460;52.028;8.916;2023-11-19T11:07:18;18.77;;;4.40;;
6842;SDS011;3460;52.028;8.916;2023-11-19T11:09:50;19.43;;;4.13;;
6842;SDS011;3460;52.028;8.916;2023-11-19T11:12:17;20.63;;;4.57;;
6842;SDS011;3460;52.028;8.916;2023-11-19T11:14:48;24.53;;;4.07;;
6842;SDS011;3460;52.028;8.916;2023-11-19T11:17:16;20.50;;;4.10;;
6842;SDS011;3460;52.028;8.916;2023-11-19T11:19:44;26.50;;;4.70;;
6842;SDS011;3460;52.028;8.916;2023-11-19T11:22:11;25.40;;;4.37;;
6842;SDS011;3460;52.028;8.916;2023-11-19T11:24:57;23.33;;;4.93;;
6842;SDS011;3460;52.028;8.916;2023-11-19T11:30:35;24.10;;;4.43;;
6842;SDS011;3460;52.028;8.916;2023-11-19T11:33:17;17.57;;;3.77;;
6842;SDS011;3460;52.028;8.916;2023-11-19T11:36:01;15.43;;;4.20;;
6842;SDS011;3460;52.028;8.916;2023-11-19T11:38:37;21.77;;;4.57;;
6842;SDS011;3460;52.028;8.916;2023-11-19T11:41:17;24.07;;;4.10;;
6842;SDS011;3460;52.028;8.916;2023-11-19T11:43:46;24.73;;;5.47;;
6842;SDS011;3460;52.028;8.916;2023-11-19T11:49:24;21.80;;;4.67;;
6842;SDS011;3460;52.028;8.916;2023-11-19T11:51:58;21.47;;;5.40;;
6842;SDS011;3460;52.028;8.916;2023-11-19T11:54:26;20.20;;;4.67;;
6842;SDS011;3460;52.028;8.916;2023-11-19T11:57:03;25.83;;;4.80;;
6842;SDS011;3460;52.028;8.916;2023-11-19T11:59:36;21.40;;;4.67;;
6842;SDS011;3460;52.028;8.916;2023-11-19T12:02:12;26.40;;;5.57;;
6842;SDS011;3460;52.028;8.916;2023-11-19T12:04:41;18.00;;;4.93;;
6842;SDS011;3460;52.028;8.916;2023-11-19T12:07:09;18.70;;;5.33;;
6842;SDS011;3460;52.028;8.916;2023-11-19T12:09:39;28.07;;;10.37;;
6842;SDS011;3460;52.028;8.916;2023-11-19T12:12:08;19.57;;;5.20;;
6842;SDS011;3460;52.028;8.916;2023-11-19T12:15:02;29.53;;;4.90;;
6842;SDS011;3460;52.028;8.916;2023-11-19T12:20:18;18.93;;;4.30;;
6842;SDS011;3460;52.028;8.916;2023-11-19T12:22:46;21.37;;;4.57;;
6842;SDS011;3460;52.028;8.916;2023-11-19T12:25:14;23.30;;;4.87;;
6842;SDS011;3460;52.028;8.916;2023-11-19T12:27:44;20.70;;;4.30;;
6842;SDS011;3460;52.028;8.916;2023-11-19T12:30:16;30.50;;;4.77;;
6842;SDS011;3460;52.028;8.916;2023-11-19T12:32:44;21.53;;;4.50;;
6842;SDS011;3460;52.028;8.916;2023-11-19T12:35:12;22.00;;;4.53;;
6842;SDS011;3460;52.028;8.916;2023-11-19T12:37:39;23.10;;;4.30;;
6842;SDS011;3460;52.028;8.916;2023-11-19T12:40:10;26.53;;;4.90;;
6842;SDS011;3460;52.028;8.916;2023-11-19T12:42:41;30.97;;;5.37;;
6842;SDS011;3460;52.028;8.916;2023-11-19T12:45:09;16.17;;;3.97;;
6842;SDS011;3460;52.028;8.916;2023-11-19T12:47:37;20.67;;;4.27;;
6842;SDS011;3460;52.028;8.916;2023-11-19T12:50:05;30.60;;;12.17;;
6842;SDS011;3460;52.028;8.916;2023-11-19T12:52:33;27.60;;;5.30;;
6842;SDS011;3460;52.028;8.916;2023-11-19T12:55:00;18.80;;;4.30;;
6842;SDS011;3460;52.028;8.916;2023-11-19T12:57:37;22.77;;;5.37;;
6842;SDS011;3460;52.028;8.916;2023-11-19T13:00:05;21.37;;;4.67;;
6842;SDS011;3460;52.028;8.916;2023-11-19T13:02:46;26.73;;;5.37;;
6842;SDS011;3460;52.028;8.916;2023-11-19T13:05:20;23.27;;;4.60;;
6842;SDS011;3460;52.028;8.916;2023-11-19T13:07:48;21.53;;;4.30;;
6842;SDS011;3460;52.028;8.916;2023-11-19T13:10:15;19.67;;;4.63;;
6842;SDS011;3460;52.028;8.916;2023-11-19T13:12:42;22.50;;;4.80;;
6842;SDS011;3460;52.028;8.916;2023-11-19T13:15:22;19.77;;;4.37;;
6842;SDS011;3460;52.028;8.916;2023-11-19T13:17:51;25.80;;;4.40;;
6842;SDS011;3460;52.028;8.916;2023-11-19T13:20:18;21.40;;;4.93;;
6842;SDS011;3460;52.028;8.916;2023-11-19T13:22:53;20.93;;;4.37;;
6842;SDS011;3460;52.028;8.916;2023-11-19T13:25:23;22.13;;;4.83;;
6842;SDS011;3460;52.028;8.916;2023-11-19T13:27:50;23.37;;;4.50;;
6842;SDS011;3460;52.028;8.916;2023-11-19T13:30:17;24.57;;;4.37;;
6842;SDS011;3460;52.028;8.916;2023-11-19T13:32:44;19.17;;;4.83;;
6842;SDS011;3460;52.028;8.916;2023-11-19T13:35:13;20.53;;;4.57;;
6842;SDS011;3460;52.028;8.916;2023-11-19T13:37:39;19.33;;;4.77;;
6842;SDS011;3460;52.028;8.916;2023-11-19T13:40:07;22.23;;;4.40;;
6842;SDS011;3460;52.028;8.916;2023-11-19T13:42:35;16.17;;;3.90;;
6842;SDS011;3460;52.028;8.916;2023-11-19T13:45:06;17.80;;;4.20;;
6842;SDS011;3460;52.028;8.916;2023-11-19T13:47:35;28.70;;;12.57;;
6842;SDS011;3460;52.028;8.916;2023-11-19T13:50:03;20.20;;;4.30;;
6842;SDS011;3460;52.028;8.916;2023-11-19T13:52:32;19.53;;;4.50;;
6842;SDS011;3460;52.028;8.916;2023-11-19T13:54:59;19.93;;;4.20;;
6842;SDS011;3460;52.028;8.916;2023-11-19T13:57:26;20.10;;;3.97;;
6842;SDS011;3460;52.028;8.916;2023-11-19T13:59:56;15.60;;;3.93;;
6842;SDS011;3460;52.028;8.916;2023-11-19T14:02:22;19.40;;;3.77;;
6842;SDS011;3460;52.028;8.916;2023-11-19T14:04:49;19.67;;;4.10;;
6842;SDS011;3460;52.028;8.916;2023-11-19T14:07:16;16.00;;;3.70;;
6842;SDS011;3460;52.028;8.916;2023-11-19T14:09:44;17.27;;;4.20;;
6842;SDS011;3460;52.028;8.916;2023-11-19T14:12:11;22.60;;;4.40;;
6842;SDS011;3460;52.028;8.916;2023-11-19T14:14:38;18.40;;;3.87;;
6842;SDS011;3460;52.028;8.916;2023-11-19T14:17:07;16.53;;;4.23;;
6842;SDS011;3460;52.028;8.916;2023-11-19T14:19:35;18.43;;;4.27;;
6842;SDS011;3460;52.028;8.916;2023-11-19T14:22:03;20.07;;;3.70;;
6842;SDS011;3460;52.028;8.916;2023-11-19T14:24:30;23.87;;;3.87;;
6842;SDS011;3460;52.028;8.916;2023-11-19T14:26:58;19.67;;;4.50;;
6842;SDS011;3460;52.028;8.916;2023-11-19T14:29:25;15.70;;;4.30;;
6842;SDS011;3460;52.028;8.916;2023-11-19T14:31:52;23.63;;;4.27;;
6842;SDS011;3460;52.028;8.916;2023-11-19T14:34:19;20.37;;;4.50;;
6842;SDS011;3460;52.028;8.916;2023-11-19T14:36:46;24.17;;;4.40;;
6842;SDS011;3460;52.028;8.916;2023-11-19T14:39:14;19.00;;;4.57;;
6842;SDS011;3460;52.028;8.916;2023-11-19T14:41:42;19.70;;;4.30;;
6842;SDS011;3460;52.028;8.916;2023-11-19T14:44:10;17.60;;;4.30;;
6842;SDS011;3460;52.028;8.916;2023-11-19T14:46:37;20.97;;;5.73;;
6842;SDS011;3460;52.028;8.916;2023-11-19T14:49:04;19.63;;;8.73;;
6842;SDS011;3460;52.028;8.916;2023-11-19T14:51:35;18.57;;;3.97;;
6842;SDS011;3460;52.028;8.916;2023-11-19T14:54:02;21.47;;;4.37;;
6842;SDS011;3460;52.028;8.916;2023-11-19T14:56:29;18.80;;;3.63;;
6842;SDS011;3460;52.028;8.916;2023-11-19T14:58:55;17.63;;;3.57;;
6842;SDS011;3460;52.028;8.916;2023-11-19T15:01:25;13.13;;;3.60;;
6842;SDS011;3460;52.028;8.916;2023-11-19T15:03:53;11.63;;;3.10;;
6842;SDS011;3460;52.028;8.916;2023-11-19T15:06:22;13.17;;;3.03;;
6842;SDS011;3460;52.028;8.916;2023-11-19T15:08:50;17.57;;;4.17;;
6842;SDS011;3460;52.028;8.916;2023-11-19T15:11:17;17.87;;;3.67;;
6842;SDS011;3460;52.028;8.916;2023-11-19T15:13:44;14.57;;;3.10;;
6842;SDS011;3460;52.028;8.916;2023-11-19T15:16:11;20.90;;;4.00;;
6842;SDS011;3460;52.028;8.916;2023-11-19T15:18:40;15.90;;;3.83;;
6842;SDS011;3460;52.028;8.916;2023-11-19T15:21:07;10.90;;;3.47;;
6842;SDS011;3460;52.028;8.916;2023-11-19T15:23:34;13.07;;;3.63;;
6842;SDS011;3460;52.028;8.916;2023-11-19T15:26:02;17.57;;;3.50;;
6842;SDS011;3460;52.028;8.916;2023-11-19T15:28:29;13.37;;;3.30;;
6842;SDS011;3460;52.028;8.916;2023-11-19T15:30:56;29.60;;;13.77;;
6842;SDS011;3460;52.028;8.916;2023-11-19T15:33:23;17.67;;;4.50;;
6842;SDS011;3460;52.028;8.916;2023-11-19T15:35:51;20.27;;;5.63;;
6842;SDS011;3460;52.028;8.916;2023-11-19T15:38:18;15.63;;;4.23;;
6842;SDS011;3460;52.028;8.916;2023-11-19T15:40:45;18.13;;;4.20;;
6842;SDS011;3460;52.028;8.916;2023-11-19T15:43:11;15.43;;;4.90;;
6842;SDS011;3460;52.028;8.916;2023-11-19T15:45:38;15.60;;;5.30;;
6842;SDS011;3460;52.028;8.916;2023-11-19T15:48:05;15.70;;;5.53;;
6842;SDS011;3460;52.028;8.916;2023-11-19T15:50:32;15.80;;;4.20;;
6842;SDS011;3460;52.028;8.916;2023-11-19T15:53:00;16.93;;;4.40;;
6842;SDS011;3460;52.028;8.916;2023-11-19T15:55:27;14.13;;;3.97;;
6842;SDS011;3460;52.028;8.916;2023-11-19T15:57:54;13.43;;;3.47;;
6842;SDS011;3460;52.028;8.916;2023-11-19T16:00:21;15.93;;;3.63;;
6842;SDS011;3460;52.028;8.916;2023-11-19T16:02:48;18.33;;;3.80;;
6842;SDS011;3460;52.028;8.916;2023-11-19T16:05:15;20.87;;;5.20;;
6842;SDS011;3460;52.028;8.916;2023-11-19T16:07:42;15.90;;;4.73;;
6842;SDS011;3460;52.028;8.916;2023-11-19T16:10:11;17.17;;;3.67;;
6842;SDS011;3460;52.028;8.916;2023-11-19T16:12:38;14.23;;;4.83;;
6842;SDS011;3460;52.028;8.916;2023-11-19T16:15:06;14.80;;;3.70;;
6842;SDS011;3460;52.028;8.916;2023-11-19T16:17:34;10.93;;;4.10;;
6842;SDS011;3460;52.028;8.916;2023-11-19T16:20:01;14.77;;;3.80;;
6842;SDS011;3460;52.028;8.916;2023-11-19T16:22:31;17.17;;;3.60;;
6842;SDS011;3460;52.028;8.916;2023-11-19T16:24:58;16.53;;;3.37;;
6842;SDS011;3460;52.028;8.916;2023-11-19T16:27:26;16.87;;;3.80;;
6842;SDS011;3460;52.028;8.916;2023-11-19T16:29:53;16.37;;;3.67;;
6842;SDS011;3460;52.028;8.916;2023-11-19T16:32:20;16.53;;;5.53;;
6842;SDS011;3460;52.028;8.916;2023-11-19T16:34:47;11.47;;;4.23;;
6842;SDS011;3460;52.028;8.916;2023-11-19T16:37:14;15.80;;;3.60;;
6842;SDS011;3460;52.028;8.916;2023-11-19T16:39:41;18.03;;;3.60;;
6842;SDS011;3460;52.028;8.916;2023-11-19T16:42:08;16.23;;;3.13;;
6842;SDS011;3460;52.028;8.916;2023-11-19T16:44:36;13.07;;;3.37;;
6842;SDS011;3460;52.028;8.916;2023-11-19T16:47:03;15.60;;;3.43;;
6842;SDS011;3460;52.028;8.916;2023-11-19T16:49:32;12.63;;;3.23;;
6842;SDS011;3460;52.028;8.916;2023-11-19T16:51:59;18.20;;;3.73;;
6842;SDS011;3460;52.028;8.916;2023-11-19T16:54:26;11.60;;;3.33;;
6842;SDS011;3460;52.028;8.916;2023-11-19T16:56:53;17.70;;;3.83;;
6842;SDS011;3460;52.028;8.916;2023-11-19T16:59:19;11.10;;;3.60;;
6842;SDS011;3460;52.028;8.916;2023-11-19T17:01:48;14.50;;;4.17;;
6842;SDS011;3460;52.028;8.916;2023-11-19T17:04:15;12.93;;;3.67;;
6842;SDS011;3460;52.028;8.916;2023-11-19T17:06:42;16.97;;;4.13;;
6842;SDS011;3460;52.028;8.916;2023-11-19T17:09:09;26.53;;;11.00;;
6842;SDS011;3460;52.028;8.916;2023-11-19T17:11:37;17.00;;;5.07;;
6842;SDS011;3460;52.028;8.916;2023-11-19T17:14:04;11.63;;;3.33;;
6842;SDS011;3460;52.028;8.916;2023-11-19T17:16:31;14.90;;;3.80;;
6842;SDS011;3460;52.028;8.916;2023-11-19T17:19:00;15.73;;;4.50;;
6842;SDS011;3460;52.028;8.916;2023-11-19T17:21:26;11.63;;;3.40;;
6842;SDS011;3460;52.028;8.916;2023-11-19T17:23:53;13.40;;;4.77;;
6842;SDS011;3460;52.028;8.916;2023-11-19T17:26:20;13.70;;;3.47;;
6842;SDS011;3460;52.028;8.916;2023-11-19T17:28:47;16.13;;;4.23;;
6842;SDS011;3460;52.028;8.916;2023-11-19T17:31:14;15.67;;;3.90;;
6842;SDS011;3460;52.028;8.916;2023-11-19T17:33:42;16.10;;;4.07;;
6842;SDS011;3460;52.028;8.916;2023-11-19T17:36:09;17.70;;;5.10;;
6842;SDS011;3460;52.028;8.916;2023-11-19T17:38:36;17.57;;;4.10;;
6842;SDS011;3460;52.028;8.916;2023-11-19T17:41:03;15.33;;;4.10;;
6842;SDS011;3460;52.028;8.916;2023-11-19T17:43:30;17.30;;;5.37;;
6842;SDS011;3460;52.028;8.916;2023-11-19T17:46:05;14.20;;;3.20;;
6842;SDS011;3460;52.028;8.916;2023-11-19T17:49:22;13.90;;;3.63;;
6842;SDS011;3460;52.028;8.916;2023-11-19T17:52:37;11.07;;;2.90;;
6842;SDS011;3460;52.028;8.916;2023-11-19T17:55:04;15.43;;;3.67;;
6842;SDS011;3460;52.028;8.916;2023-11-19T17:57:33;9.63;;;3.57;;
6842;SDS011;3460;52.028;8.916;2023-11-19T18:00:00;14.53;;;4.03;;
6842;SDS011;3460;52.028;8.916;2023-11-19T18:02:30;18.17;;;3.60;;
6842;SDS011;3460;52.028;8.916;2023-11-19T18:04:57;13.77;;;3.73;;
6842;SDS011;3460;52.028;8.916;2023-11-19T18:07:24;16.40;;;3.93;;
6842;SDS011;3460;52.028;8.916;2023-11-19T18:09:52;11.07;;;4.03;;
6842;SDS011;3460;52.028;8.916;2023-11-19T18:12:19;9.30;;;3.20;;
6842;SDS011;3460;52.028;8.916;2023-11-19T18:14:46;23.30;;;11.80;;
6842;SDS011;3460;52.028;8.916;2023-11-19T18:17:14;14.17;;;3.93;;
6842;SDS011;3460;52.028;8.916;2023-11-19T18:19:41;12.07;;;3.40;;
6842;SDS011;3460;52.028;8.916;2023-11-19T18:22:08;13.47;;;2.87;;
6842;SDS011;3460;52.028;8.916;2023-11-19T18:24:35;15.10;;;3.13;;
6842;SDS011;3460;52.028;8.916;2023-11-19T18:27:04;8.23;;;2.73;;
6842;SDS011;3460;52.028;8.916;2023-11-19T18:29:31;9.30;;;2.50;;
6842;SDS011;3460;52.028;8.916;2023-11-19T18:31:57;9.93;;;2.50;;
6842;SDS011;3460;52.028;8.916;2023-11-19T18:34:24;8.13;;;2.60;;
6842;SDS011;3460;52.028;8.916;2023-11-19T18:36:52;8.70;;;3.20;;
6842;SDS011;3460;52.028;8.916;2023-11-19T18:39:19;17.20;;;4.30;;
6842;SDS011;3460;52.028;8.916;2023-11-19T18:41:45;17.73;;;4.60;;
6842;SDS011;3460;52.028;8.916;2023-11-19T18:44:13;14.40;;;4.50;;